Thursday, January 18, 2018, 11:01 PM EST
Back to Local

KFWN, Sussex Airport

Location: Sussex, NJ, United States Lat: 41.2
Local Time: 11:01 PM EST ( 4:01 GMT) Lon: -74.633
Time Zone: US/Eastern Elev: 419 ft

Show me the last for .
Show Decoded

2018-01-18 21:53 METAR KFWN 190253Z AUTO 00000KT 9SM CLR M11/M14 A3006 RMK AO2 SLP188 T11111139
                 53019 =
2018-01-18 20:53 METAR KFWN 190153Z AUTO 00000KT 10SM CLR M07/M12 A3004 RMK AO2 SLP181 T10721117
                 =
2018-01-18 19:53 METAR KFWN 190053Z AUTO 00000KT 10SM CLR M09/M13 A3002 RMK AO2 SLP175 T10891128
                 =
2018-01-18 18:53 METAR KFWN 182353Z AUTO 00000KT 10SM CLR M04/M12 A3001 RMK AO2 SLP169 T10391117
                 11011 21044 53021 =
2018-01-18 17:53 METAR KFWN 182253Z AUTO VRB03KT 10SM CLR M03/M12 A2998 RMK AO2 SLP160 T10331117
                 =
2018-01-18 16:53 METAR KFWN 182153Z AUTO VRB04KT 10SM CLR M03/M12 A2996 RMK AO2 SLP152 T10281122
                 =
2018-01-18 15:53 METAR KFWN 182053Z AUTO 30005KT 10SM CLR M02/M12 A2995 RMK AO2 SLP148 T10221122
                 55002 =
2018-01-18 14:53 METAR KFWN 181953Z AUTO VRB06G16KT 10SM CLR M02/M12 A2993 RMK AO2 SLP143
                 T10171122 =
2018-01-18 13:53 METAR KFWN 181853Z AUTO VRB06KT 10SM CLR M02/M13 A2994 RMK AO2 SLP145 T10171128
                 $ =
2018-01-18 12:53 METAR KFWN 181753Z AUTO 29006KT 10SM CLR M03/M13 A2995 RMK AO2 SLP150 T10281133
                 11028 21200 58032 $ =
2018-01-18 11:53 METAR KFWN 181653Z AUTO VRB04KT 10SM CLR M04/M14 A3000 RMK AO2 SLP165 T10391139
                 $ =
2018-01-18 10:53 METAR KFWN 181553Z AUTO VRB05KT 10SM CLR M05/M14 A3004 RMK AO2 SLP180 T10501139
                 $ =
2018-01-18 09:53 METAR KFWN 181453Z AUTO 00000KT 10SM CLR M12/M14 A3005 RMK AO2 SLP183 T11171139
                 58001 $ =
2018-01-18 08:53 METAR KFWN 181353Z AUTO 00000KT 9SM CLR M15/M15 A3005 RMK AO2 SLP183 T11501150 =
2018-01-18 07:53 METAR KFWN 181253Z AUTO 00000KT 7SM CLR M19/M19 A3006 RMK AO2 SLP189 T11891194 =
2018-01-18 06:53 METAR KFWN 181153Z AUTO 00000KT 9SM CLR M19/M22 A3005 RMK AO2 PRESRR SLP185
                 70009 I6000 T11941217 11150 21200 55009 =
2018-01-18 05:53 METAR KFWN 181053Z AUTO 00000KT 9SM CLR M18/M21 A3003 RMK AO2 SLP176 I1000
                 T11831206 =
2018-01-18 04:53 METAR KFWN 180953Z AUTO 00000KT 9SM CLR M19/M21 A3002 RMK AO2 SLP174 T11941211 =
2018-01-18 03:53 METAR KFWN 180853Z AUTO 00000KT 9SM CLR M19/M21 A3008 RMK AO2 SLP193 I1000 I3000
                 T11941206 58020 =
2018-01-18 02:53 METAR KFWN 180753Z AUTO 00000KT 9SM CLR M17/M19 A3011 RMK AO2 SLP204 I1000
                 T11721189 =
2018-01-18 01:53 METAR KFWN 180653Z AUTO 00000KT 7SM CLR M17/M18 A3012 RMK AO2 SLP209 T11671178 =
2018-01-18 00:53 METAR KFWN 180553Z AUTO 00000KT 8SM CLR M16/M17 A3014 RMK AO2 SLP213 T11561167
                 11067 21156 56014 =
2018-01-17 23:53 METAR KFWN 180453Z AUTO 00000KT 10SM CLR M13/M16 A3015 RMK AO2 SLP217 T11331156
                 410061139 =

Support USWX by starting your Amazon purchase here.